Time;durP1;ratioP1;P1;durP2;ratioP2;P2;SDS_P1;SDS_P2;PMS_P1;PMS_P2;Temp;Humidity;BMP_temperature;BMP_pressure;BME280_temperature;BME280_humidity;BME280_pressure;Samples;Min_cycle;Max_cycle;Signal;HPM_P1;HPM_P2
2022/05/22 00:01:11;;;;;;;;;;;;;;;18.24;60.21;99681.97;4349847;33;20314;-86
2022/05/22 00:03:36;;;;;;;;;;;;;;;18.05;60.19;99672.63;4347592;33;19975;-87
2022/05/22 00:06:02;;;;;;;;;;;;;;;18.08;60.20;99672.41;4355625;33;20031;-86
2022/05/22 00:08:27;;;;;;;;;;;;;;;18.09;60.19;99668.84;4350639;33;19971;-86
2022/05/22 00:10:52;;;;;;;;;;;;;;;17.97;60.18;99672.25;4350126;33;20286;-87
2022/05/22 00:13:17;;;;;;;;;;;;;;;18.12;60.19;99666.94;4336360;33;20002;-86
2022/05/22 00:16:36;;;;;;;;;;;;;;;17.92;60.19;99662.94;4350054;33;20001;-87
2022/05/22 00:18:28;;;;;;;;;;;;;;;17.87;60.18;99657.13;4338537;33;20348;-87
2022/05/22 00:20:53;;;;;;;;;;;;;;;17.88;60.19;99650.94;4336494;33;20029;-87
2022/05/22 00:23:18;;;;;;;;;;;;;;;17.71;60.17;99651.97;4349512;33;19983;-86
2022/05/22 00:25:43;;;;;;;;;;;;;;;17.63;60.17;99654.22;4336156;33;19999;-86
2022/05/22 00:28:09;;;;;;;;;;;;;;;17.55;60.17;99648.59;4349831;33;19976;-86
2022/05/22 00:30:34;;;;;;;;;;;;;;;17.53;60.17;99651.34;4349741;33;19987;-86
2022/05/22 00:33:00;;;;;;;;;;;;;;;17.59;60.16;99648.31;4335982;33;20285;-87
2022/05/22 00:35:26;;;;;;;;;;;;;;;17.37;60.15;99646.16;4349807;33;20050;-86
2022/05/22 00:37:51;;;;;;;;;;;;;;;17.43;60.16;99645.78;4349242;33;21681;-86
2022/05/22 00:40:16;;;;;;;;;;;;;;;17.15;60.15;99648.41;4349833;33;20380;-86
2022/05/22 00:42:45;;;;;;;;;;;;;;;17.25;60.15;99646.91;4349842;33;19993;-87
2022/05/22 00:45:11;;;;;;;;;;;;;;;17.14;60.13;99649.34;4336686;33;19990;-86
2022/05/22 00:47:36;;;;;;;;;;;;;;;17.12;60.14;99651.22;4323822;33;19984;-87
2022/05/22 00:50:01;;;;;;;;;;;;;;;17.21;60.14;99645.41;4335748;33;19980;-87
2022/05/22 00:52:32;;;;;;;;;;;;;;;17.24;60.16;99649.63;4336115;33;19992;-87
2022/05/22 00:55:06;;;;;;;;;;;;;;;17.19;60.15;99652.53;4323863;33;20010;-86
2022/05/22 00:57:32;;;;;;;;;;;;;;;16.91;60.13;99644.63;4349683;33;19987;-87
2022/05/22 00:59:59;;;;;;;;;;;;;;;16.93;60.13;99658.53;4349543;33;19967;-86
2022/05/22 01:02:25;;;;;;;;;;;;;;;16.68;60.12;99652.09;4323932;33;19995;-87
2022/05/22 01:04:51;;;;;;;;;;;;;;;17.05;60.14;99649.91;4335665;33;20285;-86
2022/05/22 01:07:16;;;;;;;;;;;;;;;16.96;60.13;99650.44;4323923;33;20043;-86
2022/05/22 01:09:42;;;;;;;;;;;;;;;17.09;60.14;99648.78;4349523;33;19979;-87
2022/05/22 01:12:08;;;;;;;;;;;;;;;16.98;60.13;99651.19;4336239;33;20257;-86
2022/05/22 01:14:34;;;;;;;;;;;;;;;17.11;60.15;99644.28;4333356;33;20355;-86
2022/05/22 01:17:00;;;;;;;;;;;;;;;17.06;60.14;99641.94;4333747;33;19976;-86
2022/05/22 01:19:25;;;;;;;;;;;;;;;17.12;60.14;99646.81;4333717;33;19992;-86
2022/05/22 01:21:54;;;;;;;;;;;;;;;17.17;60.14;99636.84;4321211;33;19994;-87
2022/05/22 01:24:20;;;;;;;;;;;;;;;17.14;60.13;99644.09;4333647;33;19986;-86
2022/05/22 01:26:45;;;;;;;;;;;;;;;17.16;60.14;99647.47;4333587;33;20010;-86
2022/05/22 01:29:10;;;;;;;;;;;;;;;17.37;60.15;99638.28;4333078;33;24533;-86
2022/05/22 01:31:35;;;;;;;;;;;;;;;17.20;60.14;99643.72;4333329;33;20031;-86
2022/05/22 01:34:00;;;;;;;;;;;;;;;17.21;60.14;99639.28;4333464;33;20310;-86
2022/05/22 01:36:26;;;;;;;;;;;;;;;17.35;60.15;99639.31;4334945;33;19979;-86
2022/05/22 01:38:51;;;;;;;;;;;;;;;17.30;60.15;99634.34;4321356;33;20035;-87
2022/05/22 01:41:16;;;;;;;;;;;;;;;17.26;60.14;99634.59;4333547;33;20027;-86
2022/05/22 01:43:41;;;;;;;;;;;;;;;17.31;60.15;99629.91;4334817;33;20207;-87
2022/05/22 01:46:07;;;;;;;;;;;;;;;17.28;60.15;99636.22;4321545;33;19987;-86
2022/05/22 01:48:33;;;;;;;;;;;;;;;17.37;60.14;99633.00;4335071;33;20011;-86
2022/05/22 01:50:58;;;;;;;;;;;;;;;17.35;60.15;99634.03;4334279;33;20006;-87
2022/05/22 01:53:23;;;;;;;;;;;;;;;17.42;60.16;99635.34;4334762;33;20238;-86
2022/05/22 01:55:50;;;;;;;;;;;;;;;17.42;60.16;99633.56;4351955;33;23717;-86
2022/05/22 01:58:15;;;;;;;;;;;;;;;17.39;60.16;99632.91;4332506;33;20558;-87
2022/05/22 02:00:40;;;;;;;;;;;;;;;17.55;60.17;99630.19;4333534;33;20353;-87
2022/05/22 02:03:06;;;;;;;;;;;;;;;17.36;60.15;99633.09;4334475;33;20276;-87
2022/05/22 02:05:31;;;;;;;;;;;;;;;17.27;60.14;99633.66;4334174;33;19968;-86
2022/05/22 02:10:41;;;;;;;;;;;;;;;17.36;60.15;99625.22;4333158;33;20006;-87
2022/05/22 02:13:06;;;;;;;;;;;;;;;17.45;60.16;99628.09;4320595;33;19984;-87
2022/05/22 02:15:31;;;;;;;;;;;;;;;17.57;60.16;99629.16;4317753;33;19971;-87
2022/05/22 02:17:57;;;;;;;;;;;;;;;17.49;60.16;99626.97;4317300;33;19992;-86
2022/05/22 02:20:22;;;;;;;;;;;;;;;17.34;60.15;99624.47;4330476;33;19984;-87
2022/05/22 02:22:48;;;;;;;;;;;;;;;17.49;60.16;99626.13;4329933;33;22908;-86
2022/05/22 02:25:15;;;;;;;;;;;;;;;17.37;60.15;99625.13;4318309;33;19994;-86
2022/05/22 02:27:40;;;;;;;;;;;;;;;17.53;60.15;99618.91;4318021;33;20088;-86
2022/05/22 02:30:05;;;;;;;;;;;;;;;17.44;60.15;99620.31;4330402;33;20341;-86
2022/05/22 02:32:31;;;;;;;;;;;;;;;17.44;60.15;99623.78;4317962;33;19991;-86
2022/05/22 02:34:56;;;;;;;;;;;;;;;17.33;60.15;99621.00;4330380;33;20003;-86
2022/05/22 02:37:21;;;;;;;;;;;;;;;17.42;60.16;99623.03;4317765;33;19984;-86
2022/05/22 02:39:47;;;;;;;;;;;;;;;17.44;60.16;99630.84;4319485;33;19984;-86
2022/05/22 02:42:12;;;;;;;;;;;;;;;17.39;60.15;99636.38;4319191;33;20393;-86
2022/05/22 02:44:37;;;;;;;;;;;;;;;17.37;60.15;99632.16;4330199;33;20306;-86
2022/05/22 02:47:03;;;;;;;;;;;;;;;17.38;60.14;99636.47;4317768;33;20012;-86
2022/05/22 02:49:28;;;;;;;;;;;;;;;17.42;60.15;99625.66;4330062;33;20014;-86
2022/05/22 02:51:53;;;;;;;;;;;;;;;17.46;60.16;99635.06;4330072;33;19980;-86
2022/05/22 02:54:21;;;;;;;;;;;;;;;17.34;60.15;99633.19;4318611;33;21707;-86
2022/05/22 02:56:46;;;;;;;;;;;;;;;17.33;60.15;99639.41;4329829;33;19984;-86
2022/05/22 02:59:12;;;;;;;;;;;;;;;17.33;60.15;99636.78;4318883;33;19976;-86
2022/05/22 03:01:37;;;;;;;;;;;;;;;17.25;60.15;99623.22;4317338;33;19996;-85
2022/05/22 03:04:02;;;;;;;;;;;;;;;17.27;60.14;99629.25;4329804;33;19984;-85
2022/05/22 03:06:39;;;;;;;;;;;;;;;17.39;60.16;99630.28;4318895;33;20020;-86
2022/05/22 03:09:14;;;;;;;;;;;;;;;17.38;60.16;99632.06;4318761;33;20038;-87
2022/05/22 03:11:39;;;;;;;;;;;;;;;17.32;60.15;99632.44;4318865;33;19980;-86
2022/05/22 03:14:05;;;;;;;;;;;;;;;17.34;60.15;99640.25;4328958;33;20274;-87
2022/05/22 03:16:30;;;;;;;;;;;;;;;17.37;60.14;99630.38;4334678;33;20273;-86
2022/05/22 03:18:55;;;;;;;;;;;;;;;17.41;60.15;99633.66;4348160;33;20007;-86
2022/05/22 03:21:20;;;;;;;;;;;;;;;17.38;60.15;99632.06;4334504;33;20231;-86
2022/05/22 03:23:46;;;;;;;;;;;;;;;17.54;60.17;99631.12;4347562;33;25869;-86
2022/05/22 03:26:11;;;;;;;;;;;;;;;17.56;60.17;99634.50;4347147;33;32079;-86
2022/05/22 03:28:36;;;;;;;;;;;;;;;17.68;60.17;99620.59;4349253;33;20011;-86
2022/05/22 03:31:01;;;;;;;;;;;;;;;17.62;60.17;99624.44;4324520;33;19975;-85
2022/05/22 03:33:27;;;;;;;;;;;;;;;17.69;60.17;99625.75;4336263;33;25680;-87
2022/05/22 03:35:52;;;;;;;;;;;;;;;17.71;60.17;99628.28;4336897;33;19996;-86
2022/05/22 03:38:17;;;;;;;;;;;;;;;17.74;60.17;99620.19;4336899;33;19980;-85
2022/05/22 03:40:47;;;;;;;;;;;;;;;17.87;60.18;99629.00;4350241;33;20083;-86
2022/05/22 03:43:15;;;;;;;;;;;;;;;17.84;60.18;99634.47;4338069;33;19990;-85
2022/05/22 03:45:40;;;;;;;;;;;;;;;17.74;60.17;99623.69;4337892;33;19975;-87
2022/05/22 03:48:05;;;;;;;;;;;;;;;17.75;60.17;99637.72;4354136;33;20086;-86
2022/05/22 03:50:31;;;;;;;;;;;;;;;17.77;60.17;99646.34;4357287;33;19971;-87
2022/05/22 03:52:56;;;;;;;;;;;;;;;17.75;60.17;99645.59;4336514;33;20027;-85
2022/05/22 03:55:21;;;;;;;;;;;;;;;17.71;60.17;99652.81;4336732;33;19999;-86
2022/05/22 03:57:47;;;;;;;;;;;;;;;17.64;60.17;99648.03;4350157;33;19979;-86
2022/05/22 04:00:13;;;;;;;;;;;;;;;17.72;60.17;99651.03;4336819;33;19979;-87
2022/05/22 04:02:38;;;;;;;;;;;;;;;17.87;60.18;99657.13;4350105;33;19975;-85
2022/05/22 04:05:03;;;;;;;;;;;;;;;17.84;60.18;99652.06;4350292;33;19975;-86
2022/05/22 04:07:29;;;;;;;;;;;;;;;17.77;60.17;99652.47;4336539;33;20042;-86
2022/05/22 04:09:55;;;;;;;;;;;;;;;17.77;60.18;99662.16;4336816;33;20003;-86
2022/05/22 04:12:21;;;;;;;;;;;;;;;17.55;60.16;99664.41;4336702;33;19988;-86
2022/05/22 04:14:46;;;;;;;;;;;;;;;17.75;60.17;99656.97;4349729;33;20218;-85
2022/05/22 04:17:11;;;;;;;;;;;;;;;17.92;60.18;99663.78;4349812;33;19988;-85
2022/05/22 04:19:37;;;;;;;;;;;;;;;18.04;60.19;99664.81;4349918;33;20019;-86
2022/05/22 04:22:03;;;;;;;;;;;;;;;17.93;60.19;99662.84;4324294;33;20321;-86
2022/05/22 04:27:12;;;;;;;;;;;;;;;18.02;60.19;99664.06;4338107;33;20038;-87
2022/05/22 04:29:37;;;;;;;;;;;;;;;18.08;60.19;99672.41;4323855;33;20007;-86
2022/05/22 04:32:03;;;;;;;;;;;;;;;17.98;60.18;99676.59;4323947;33;20023;-87
2022/05/22 04:34:28;;;;;;;;;;;;;;;17.93;60.19;99665.47;4336256;33;20023;-87
2022/05/22 04:36:54;;;;;;;;;;;;;;;17.93;60.19;99673.37;4335888;33;20001;-86
2022/05/22 04:39:19;;;;;;;;;;;;;;;17.82;60.17;99667.13;4335275;33;19971;-85
2022/05/22 04:41:44;;;;;;;;;;;;;;;17.79;60.18;99666.37;4336163;33;19991;-87
2022/05/22 04:44:09;;;;;;;;;;;;;;;17.86;60.18;99673.87;4335880;33;19983;-85
2022/05/22 04:46:35;;;;;;;;;;;;;;;17.81;60.17;99665.44;4349478;33;20035;-85
2022/05/22 04:49:00;;;;;;;;;;;;;;;17.96;60.18;99664.44;4335929;33;20030;-86
2022/05/22 04:51:25;;;;;;;;;;;;;;;17.91;60.18;99667.38;4349470;33;20388;-86
2022/05/22 04:53:50;;;;;;;;;;;;;;;18.08;60.19;99664.50;4335829;33;20261;-86
2022/05/22 04:56:16;;;;;;;;;;;;;;;18.08;60.19;99669.78;4335837;33;19996;-85
2022/05/22 04:58:41;;;;;;;;;;;;;;;18.14;60.19;99670.31;4335820;33;19980;-87
2022/05/22 05:01:07;;;;;;;;;;;;;;;18.29;60.19;99672.81;4323263;33;19995;-86
2022/05/22 05:03:32;;;;;;;;;;;;;;;18.30;60.20;99671.03;4335792;33;20027;-86
2022/05/22 05:05:57;;;;;;;;;;;;;;;18.41;60.21;99672.00;4335753;33;20010;-86
2022/05/22 05:08:23;;;;;;;;;;;;;;;18.46;60.21;99661.19;4335879;33;20305;-86
2022/05/22 05:10:49;;;;;;;;;;;;;;;18.54;60.22;99665.94;4335883;33;19984;-86
2022/05/22 05:13:14;;;;;;;;;;;;;;;18.44;60.20;99665.69;4349360;33;20007;-86
2022/05/22 05:15:40;;;;;;;;;;;;;;;18.64;60.23;99673.16;4349321;33;19980;-86
2022/05/22 05:18:05;;;;;;;;;;;;;;;18.74;60.23;99667.31;4336031;33;19995;-87
2022/05/22 05:20:30;;;;;;;;;;;;;;;18.89;60.23;99675.00;4335653;33;19999;-86
2022/05/22 05:22:55;;;;;;;;;;;;;;;19.19;60.25;99664.19;4335959;33;20010;-86
2022/05/22 05:25:21;;;;;;;;;;;;;;;19.22;60.26;99653.41;4335889;33;19988;-86
2022/05/22 05:27:46;;;;;;;;;;;;;;;19.38;60.26;99669.00;4349260;33;19975;-86
2022/05/22 05:30:11;;;;;;;;;;;;;;;19.34;60.25;99670.16;4336225;33;20316;-86
2022/05/22 05:32:37;;;;;;;;;;;;;;;19.60;60.27;99666.59;4350109;33;20219;-86
2022/05/22 05:35:03;;;;;;;;;;;;;;;19.49;60.26;99668.28;4349847;33;20054;-85
2022/05/22 05:37:29;;;;;;;;;;;;;;;19.54;60.27;99671.47;4350049;33;19993;-87
2022/05/22 05:39:54;;;;;;;;;;;;;;;19.48;60.26;99670.06;4341844;33;19988;-88
2022/05/22 05:42:19;;;;;;;;;;;;;;;19.56;60.27;99666.91;4346655;33;19987;-87
2022/05/22 05:44:45;;;;;;;;;;;;;;;19.66;60.27;99681.19;4336097;33;20318;-87
2022/05/22 05:47:10;;;;;;;;;;;;;;;19.55;60.27;99678.44;4335598;33;20344;-87
2022/05/22 05:49:36;;;;;;;;;;;;;;;19.37;60.25;99683.16;4335650;33;20107;-86
2022/05/22 05:52:02;;;;;;;;;;;;;;;19.37;60.25;99675.25;4322979;33;19987;-87
2022/05/22 05:54:27;;;;;;;;;;;;;;;19.35;60.25;99678.94;4348934;33;20269;-87
2022/05/22 05:56:52;;;;;;;;;;;;;;;19.31;60.26;99676.50;4335192;33;20322;-88
2022/05/22 05:59:17;;;;;;;;;;;;;;;19.26;60.25;99678.63;4348734;33;20282;-87
2022/05/22 06:01:43;;;;;;;;;;;;;;;19.19;60.25;99679.16;4348924;33;19980;-87
2022/05/22 06:04:08;;;;;;;;;;;;;;;19.31;60.26;99679.16;4348911;33;19983;-86
2022/05/22 06:06:34;;;;;;;;;;;;;;;19.48;60.27;99679.78;4335330;33;20006;-86
2022/05/22 06:09:00;;;;;;;;;;;;;;;19.52;60.26;99674.19;4348992;33;19986;-86
2022/05/22 06:11:25;;;;;;;;;;;;;;;19.58;60.27;99672.94;4348791;33;20018;-86
2022/05/22 06:13:50;;;;;;;;;;;;;;;19.68;60.26;99667.88;4335337;33;20023;-86
2022/05/22 06:16:15;;;;;;;;;;;;;;;19.80;60.28;99661.69;4335363;33;20004;-86
2022/05/22 06:18:42;;;;;;;;;;;;;;;19.87;60.28;99658.53;4348734;33;21975;-90
2022/05/22 06:21:11;;;;;;;;;;;;;;;19.96;60.29;99661.44;4348679;33;19994;-86
2022/05/22 06:23:38;;;;;;;;;;;;;;;19.89;60.28;99667.19;4335273;33;20014;-86
2022/05/22 06:26:03;;;;;;;;;;;;;;;19.93;60.29;99671.28;4335273;33;20043;-86
2022/05/22 06:28:29;;;;;;;;;;;;;;;20.02;60.29;99671.56;4335233;33;19998;-87
2022/05/22 06:30:54;;;;;;;;;;;;;;;19.94;60.28;99674.78;4348432;33;19980;-86
2022/05/22 06:33:20;;;;;;;;;;;;;;;19.71;60.28;99668.47;4348342;33;19979;-87
2022/05/22 06:35:46;;;;;;;;;;;;;;;19.75;60.27;99672.59;4348761;33;19987;-87
2022/05/22 06:39:49;;;;;;;;;;;;;;;20.02;60.29;99658.34;4335202;33;20353;-86
2022/05/22 06:40:56;;;;;;;;;;;;;;;20.35;60.31;99652.41;4348515;33;19987;-88
2022/05/22 06:43:22;;;;;;;;;;;;;;;20.77;60.33;99656.31;4348287;33;20365;-87
2022/05/22 06:45:50;;;;;;;;;;;;;;;20.79;60.33;99660.53;4335165;33;20231;-87
2022/05/22 06:48:16;;;;;;;;;;;;;;;20.73;60.33;99665.44;4348586;33;19976;-86
2022/05/22 06:50:41;;;;;;;;;;;;;;;20.87;60.34;99667.06;4348617;33;19986;-87
2022/05/22 06:53:06;;;;;;;;;;;;;;;21.01;60.35;99665.03;4335182;33;20309;-87
2022/05/22 06:55:32;;;;;;;;;;;;;;;20.98;60.34;99657.34;4335061;33;19994;-87
2022/05/22 06:57:57;;;;;;;;;;;;;;;21.06;60.34;99657.59;4334857;33;19975;-86
2022/05/22 07:00:22;;;;;;;;;;;;;;;20.96;60.33;99650.47;4335019;33;19995;-87
2022/05/22 07:02:48;;;;;;;;;;;;;;;20.79;60.34;99655.25;4335489;33;20241;-87
2022/05/22 07:05:13;;;;;;;;;;;;;;;21.04;60.34;99646.28;4337077;33;20014;-87
2022/05/22 07:07:38;;;;;;;;;;;;;;;21.32;60.37;99644.19;4350405;33;19999;-86
2022/05/22 07:10:04;;;;;;;;;;;;;;;21.32;60.36;99642.37;4350500;33;20022;-86
2022/05/22 07:12:29;;;;;;;;;;;;;;;21.23;60.36;99640.41;4336791;33;19991;-87
2022/05/22 07:14:55;;;;;;;;;;;;;;;21.23;60.36;99640.41;4336075;33;22295;-86
2022/05/22 07:17:23;;;;;;;;;;;;;;;21.47;60.36;99639.47;4324743;33;19999;-87
2022/05/22 07:19:49;;;;;;;;;;;;;;;21.29;60.36;99637.31;4324918;33;19988;-87
2022/05/22 07:22:14;;;;;;;;;;;;;;;21.51;60.37;99640.91;4350387;33;20002;-88
2022/05/22 07:24:39;;;;;;;;;;;;;;;21.91;60.38;99634.13;4350736;33;19989;-88
2022/05/22 07:27:05;;;;;;;;;;;;;;;22.15;60.40;99628.69;4350598;33;19975;-87
2022/05/22 07:29:30;;;;;;;;;;;;;;;22.14;60.40;99626.16;4337695;33;19987;-87
2022/05/22 07:31:56;;;;;;;;;;;;;;;22.43;60.41;99615.78;4345825;33;20065;-88
2022/05/22 07:34:24;;;;;;;;;;;;;;;22.65;60.43;99623.62;4358151;33;19998;-87
2022/05/22 07:36:52;;;;;;;;;;;;;;;22.81;60.44;99621.41;4337273;33;19990;-87
2022/05/22 07:39:18;;;;;;;;;;;;;;;23.06;60.45;99619.31;4324052;33;20046;-87
2022/05/22 07:41:43;;;;;;;;;;;;;;;;;;4336161;33;20306;-87
2022/05/22 07:44:08;;;;;;;;;;;;;;;22.95;60.44;99621.09;4350038;33;25799;-86
2022/05/22 07:46:33;;;;;;;;;;;;;;;23.04;60.45;99610.66;4324003;33;19976;-87
2022/05/22 07:48:58;;;;;;;;;;;;;;;23.17;60.45;99603.28;4336285;33;20010;-87
2022/05/22 07:51:24;;;;;;;;;;;;;;;23.12;60.46;99605.53;4335983;33;20006;-86
2022/05/22 07:53:49;;;;;;;;;;;;;;;23.05;60.45;99605.22;4349483;33;20035;-86
2022/05/22 07:56:16;;;;;;;;;;;;;;;23.19;60.47;99606.69;4349920;33;19993;-86
2022/05/22 07:58:41;;;;;;;;;;;;;;;23.23;60.46;99605.44;4349799;33;20247;-86
2022/05/22 08:01:07;;;;;;;;;;;;;;;23.35;60.47;99603.53;4336098;33;20010;-87
2022/05/22 08:03:32;;;;;;;;;;;;;;;23.30;60.47;99603.09;4324167;33;19988;-88
2022/05/22 08:05:57;;;;;;;;;;;;;;;;;;4336072;33;19980;-87
2022/05/22 08:08:23;;;;;;;;;;;;;;;23.08;60.45;99604.09;4350018;33;19980;-87
2022/05/22 08:10:48;;;;;;;;;;;;;;;23.08;60.45;99598.78;4336218;33;20030;-87
2022/05/22 08:13:13;;;;;;;;;;;;;;;23.32;60.46;99601.97;4335910;33;20317;-87
2022/05/22 08:15:39;;;;;;;;;;;;;;;23.47;60.47;99587.38;4332685;33;20262;-86
2022/05/22 08:18:04;;;;;;;;;;;;;;;23.32;60.46;99585.19;4335093;33;19988;-87
2022/05/22 08:20:30;;;;;;;;;;;;;;;23.30;60.46;99585.34;4333644;33;19995;-86
2022/05/22 08:22:56;;;;;;;;;;;;;;;23.10;60.46;99579.09;4321557;33;19995;-87
2022/05/22 08:25:22;;;;;;;;;;;;;;;23.24;60.46;99596.50;4333715;33;20326;-87
2022/05/22 08:27:47;;;;;;;;;;;;;;;23.44;60.48;99592.13;4333737;33;20015;-87
2022/05/22 08:30:14;;;;;;;;;;;;;;;23.39;60.47;99584.53;4334799;33;20023;-87
2022/05/22 08:32:39;;;;;;;;;;;;;;;23.35;60.47;99585.78;4333639;33;19999;-87
2022/05/22 08:35:05;;;;;;;;;;;;;;;23.26;60.47;99587.44;4334911;33;19972;-87
2022/05/22 08:37:31;;;;;;;;;;;;;;;23.52;60.48;99584.28;4334890;33;19988;-88
2022/05/22 08:39:56;;;;;;;;;;;;;;;23.62;60.49;99581.69;4333629;33;20009;-86
2022/05/22 08:42:25;;;;;;;;;;;;;;;23.34;60.47;99568.16;4320990;33;19984;-88
2022/05/22 08:44:51;;;;;;;;;;;;;;;23.23;60.46;99578.88;4333609;33;19976;-87
2022/05/22 08:47:25;;;;;;;;;;;;;;;23.13;60.46;99567.37;4333466;33;20010;-88
2022/05/22 08:49:55;;;;;;;;;;;;;;;23.29;60.46;99567.72;4333623;33;20315;-87
2022/05/22 08:52:23;;;;;;;;;;;;;;;23.39;60.47;99571.25;4333618;33;20031;-87
2022/05/22 08:54:49;;;;;;;;;;;;;;;23.37;60.48;99569.69;4334860;33;19981;-87
2022/05/22 09:00:06;;;;;;;;;;;;;;;23.46;60.47;99556.47;4333777;33;20036;-87
2022/05/22 09:03:10;;;;;;;;;;;;;;;23.68;60.48;99549.28;4333678;33;19976;-88
2022/05/22 09:05:36;;;;;;;;;;;;;;;23.73;60.49;99563.00;4291201;33;20500;-87
2022/05/22 09:08:06;;;;;;;;;;;;;;;24.09;60.51;99546.34;4291218;33;20008;-87
2022/05/22 09:10:31;;;;;;;;;;;;;;;24.26;60.51;99544.81;4310493;33;19996;-87
2022/05/22 09:13:15;;;;;;;;;;;;;;;24.09;60.50;99543.69;4334801;33;20039;-87
2022/05/22 09:15:47;;;;;;;;;;;;;;;24.16;60.51;99534.19;4333570;33;19986;-86
2022/05/22 09:18:29;;;;;;;;;;;;;;;24.48;60.53;99525.06;4335041;33;20000;-87
2022/05/22 09:21:01;;;;;;;;;;;;;;;24.68;60.54;99531.19;4333924;33;20048;-86
2022/05/22 09:23:30;;;;;;;;;;;;;;;24.59;60.54;99527.56;4339774;33;19978;-87
2022/05/22 09:26:07;;;;;;;;;;;;;;;24.64;60.54;99520.00;4341131;33;20347;-87
2022/05/22 09:28:35;;;;;;;;;;;;;;;24.89;60.55;99523.00;4334859;33;20381;-88
2022/05/22 09:31:07;;;;;;;;;;;;;;;24.84;60.55;99522.59;4334615;33;20035;-87
2022/05/22 09:33:50;;;;;;;;;;;;;;;24.95;60.55;99514.44;4334560;33;19980;-86
2022/05/22 09:36:23;;;;;;;;;;;;;;;24.77;60.54;99514.34;4334527;33;19972;-87
2022/05/22 09:39:07;;;;;;;;;;;;;;;24.47;60.53;99526.06;4333194;33;19995;-88
2022/05/22 09:41:36;;;;;;;;;;;;;;;24.39;60.52;99512.66;4334417;33;20035;-87
2022/05/22 09:44:16;;;;;;;;;;;;;;;24.56;60.53;99514.53;4333132;33;19995;-88
2022/05/22 09:46:42;;;;;;;;;;;;;;;24.45;60.53;99523.53;4334400;33;19986;-87
2022/05/22 09:49:17;;;;;;;;;;;;;;;24.52;60.54;99517.66;4334115;33;20279;-87
2022/05/22 09:51:47;;;;;;;;;;;;;;;24.49;60.52;99508.13;4334223;33;19983;-87
2022/05/22 09:54:22;;;;;;;;;;;;;;;24.69;60.54;99508.91;4333109;33;20025;-87
2022/05/22 09:56:51;;;;;;;;;;;;;;;24.84;60.56;99506.63;4334322;33;19976;-87
2022/05/22 09:59:21;;;;;;;;;;;;;;;24.96;60.56;99510.78;4333191;33;20344;-87
2022/05/22 10:01:48;;;;;;;;;;;;;;;25.03;60.56;99503.91;4334350;33;20085;-87
2022/05/22 10:04:28;;;;;;;;;;;;;;;24.90;60.56;99501.56;4332779;33;20345;-88
2022/05/22 10:07:09;;;;;;;;;;;;;;;25.00;60.56;99491.72;4334307;33;19982;-87
2022/05/22 10:09:42;;;;;;;;;;;;;;;25.03;60.56;99490.59;4332945;33;19995;-87
2022/05/22 10:12:14;;;;;;;;;;;;;;;25.10;60.56;99507.69;4320689;33;19996;-88
2022/05/22 10:14:48;;;;;;;;;;;;;;;24.84;60.55;99501.28;4334183;32;20027;-87
2022/05/22 10:17:23;;;;;;;;;;;;;;;24.76;60.55;99488.72;4335323;33;20083;-87
2022/05/22 10:19:48;;;;;;;;;;;;;;;24.67;60.54;99494.94;4335194;33;20054;-87
2022/05/22 10:22:36;;;;;;;;;;;;;;;24.54;60.54;99489.06;4348727;33;19976;-87
2022/05/22 10:25:20;;;;;;;;;;;;;;;24.84;60.55;99485.31;4327383;33;20273;-87
2022/05/22 10:27:45;;;;;;;;;;;;;;;24.93;60.56;99473.81;4348798;33;20364;-85
2022/05/22 10:30:11;;;;;;;;;;;;;;;25.09;60.56;99482.03;4348520;33;19975;-87
2022/05/22 10:32:43;;;;;;;;;;;;;;;24.91;60.56;99475.78;4335116;33;20046;-88
2022/05/22 10:35:11;;;;;;;;;;;;;;;24.68;60.54;99464.66;4335237;33;20320;-87
2022/05/22 10:37:38;;;;;;;;;;;;;;;24.96;60.56;99465.50;4348990;33;19984;-87
2022/05/22 10:40:04;;;;;;;;;;;;;;;25.13;60.57;99455.94;4350268;33;20007;-88
2022/05/22 10:42:46;;;;;;;;;;;;;;;24.88;60.55;99460.94;4336936;33;20003;-88
2022/05/22 10:45:20;;;;;;;;;;;;;;;25.07;60.56;99454.69;4338570;33;19980;-87
2022/05/22 10:47:45;;;;;;;;;;;;;;;25.25;60.57;99473.38;4350250;33;19972;-87
2022/05/22 10:50:18;;;;;;;;;;;;;;;25.25;60.57;99463.56;4350317;33;20376;-87
2022/05/22 10:52:43;;;;;;;;;;;;;;;25.14;60.57;99468.28;4336830;33;20396;-86
2022/05/22 10:55:20;;;;;;;;;;;;;;;25.20;60.57;99467.66;4336857;33;20003;-87
2022/05/22 10:57:52;;;;;;;;;;;;;;;25.10;60.57;99470.41;4336867;33;19980;-88
2022/05/22 11:00:18;;;;;;;;;;;;;;;25.21;60.58;99472.00;4350372;33;20027;-86
2022/05/22 11:02:43;;;;;;;;;;;;;;;25.06;60.56;99469.81;4350244;33;19990;-87
2022/05/22 11:05:15;;;;;;;;;;;;;;;24.90;60.56;99485.59;4324344;33;20002;-87
2022/05/22 11:07:45;;;;;;;;;;;;;;;24.93;60.56;99485.28;4336767;33;19980;-87
2022/05/22 11:10:10;;;;;;;;;;;;;;;24.82;60.56;99474.81;4312267;33;794701;-87
2022/05/22 11:12:35;;;;;;;;;;;;;;;25.05;60.57;99478.81;4350285;33;20019;-87
2022/05/22 11:15:08;;;;;;;;;;;;;;;25.00;60.56;99478.41;4339086;33;19986;-86
2022/05/22 11:17:33;;;;;;;;;;;;;;;24.75;60.55;99477.22;4346595;33;19979;-86
2022/05/22 11:19:59;;;;;;;;;;;;;;;24.74;60.54;99474.72;4336856;33;20042;-87
2022/05/22 11:22:27;;;;;;;;;;;;;;;24.76;60.55;99473.59;4336774;33;19995;-86
2022/05/22 11:25:11;;;;;;;;;;;;;;;24.87;60.55;99463.75;4350125;33;19984;-87
2022/05/22 11:27:42;;;;;;;;;;;;;;;25.03;60.56;99455.97;4350104;33;20019;-88
2022/05/22 11:30:07;;;;;;;;;;;;;;;24.89;60.55;99453.78;4349990;33;19984;-86
2022/05/22 11:32:47;;;;;;;;;;;;;;;24.98;60.57;99447.56;4350139;33;20261;-88
2022/05/22 11:35:21;;;;;;;;;;;;;;;24.98;60.57;99455.56;4336589;33;20256;-87
2022/05/22 11:37:49;;;;;;;;;;;;;;;25.16;60.57;99453.81;4350062;33;19984;-87
2022/05/22 11:40:34;;;;;;;;;;;;;;;25.16;60.57;99439.66;4336281;33;20289;-87
2022/05/22 11:43:19;;;;;;;;;;;;;;;25.00;60.56;99448.28;4350166;33;20002;-87
2022/05/22 11:46:03;;;;;;;;;;;;;;;25.28;60.57;99435.78;4324365;33;20091;-87
2022/05/22 11:48:47;;;;;;;;;;;;;;;25.24;60.57;99429.91;4348638;33;20011;-88
2022/05/22 11:51:18;;;;;;;;;;;;;;;25.15;60.57;99436.16;4349917;33;19991;-86
2022/05/22 11:53:46;;;;;;;;;;;;;;;25.06;60.57;99437.03;4349914;33;20002;-87
2022/05/22 11:56:22;;;;;;;;;;;;;;;24.97;60.55;99429.91;4336328;33;20018;-88
2022/05/22 11:58:53;;;;;;;;;;;;;;;24.96;60.56;99414.91;4336269;33;20035;-87
2022/05/22 12:01:30;;;;;;;;;;;;;;;24.74;60.55;99432.97;4336281;33;19991;-88
2022/05/22 12:04:05;;;;;;;;;;;;;;;24.82;60.54;99424.22;4348552;33;19991;-87
2022/05/22 12:06:39;;;;;;;;;;;;;;;24.96;60.56;99420.25;4349661;33;19990;-88
2022/05/22 12:09:07;;;;;;;;;;;;;;;25.17;60.57;99402.22;4349798;33;19968;-88
2022/05/22 12:11:32;;;;;;;;;;;;;;;24.96;60.56;99402.44;4349725;33;20312;-87
2022/05/22 12:14:10;;;;;;;;;;;;;;;24.91;60.56;99411.88;4349744;33;20022;-87
2022/05/22 12:16:42;;;;;;;;;;;;;;;24.77;60.55;99405.22;4349725;33;19998;-87
2022/05/22 12:19:07;;;;;;;;;;;;;;;24.77;60.55;99407.88;4336215;33;20035;-88
2022/05/22 12:21:51;;;;;;;;;;;;;;;24.76;60.55;99399.03;4349671;33;20035;-87
2022/05/22 12:24:23;;;;;;;;;;;;;;;24.87;60.55;99405.19;4324010;33;20027;-86
2022/05/22 12:26:48;;;;;;;;;;;;;;;24.84;60.55;99397.47;4336195;33;20043;-87
2022/05/22 12:29:15;;;;;;;;;;;;;;;24.84;60.56;99403.62;4336222;33;20022;-87
2022/05/22 12:31:43;;;;;;;;;;;;;;;25.11;60.56;99392.16;4336184;33;19988;-86
2022/05/22 12:34:15;;;;;;;;;;;;;;;25.15;60.57;99396.19;4349669;33;19987;-88
2022/05/22 12:36:42;;;;;;;;;;;;;;;25.22;60.58;99388.44;4336054;33;20011;-88
2022/05/22 12:39:09;;;;;;;;;;;;;;;25.52;60.58;99389.88;4336187;33;20030;-90
2022/05/22 12:41:46;;;;;;;;;;;;;;;25.83;60.60;99391.19;4349438;33;20372;-88
2022/05/22 12:44:12;;;;;;;;;;;;;;;26.02;60.61;99390.13;4336079;33;20000;-87
2022/05/22 12:46:39;;;;;;;;;;;;;;;25.95;60.61;99386.44;4349453;33;19999;-87
2022/05/22 12:49:09;;;;;;;;;;;;;;;26.06;60.61;99382.69;4336081;33;19968;-87
2022/05/22 12:51:35;;;;;;;;;;;;;;;25.82;60.60;99380.69;4349594;33;20055;-87
2022/05/22 12:54:20;;;;;;;;;;;;;;;25.91;60.60;99380.56;4336071;33;19992;-88
2022/05/22 12:56:45;;;;;;;;;;;;;;;25.91;60.62;99377.06;4349614;33;19976;-88
2022/05/22 12:59:21;;;;;;;;;;;;;;;25.80;60.61;99372.84;4336194;33;19987;-87